createdAt,value
2023-02-06T00:01:38.448Z,5.13
2023-02-06T00:04:05.906Z,5.43
2023-02-06T00:06:33.970Z,6.68
2023-02-06T00:09:01.309Z,6.05
2023-02-06T00:11:28.804Z,6.30
2023-02-06T00:13:56.066Z,6.90
2023-02-06T00:16:29.152Z,7.80
2023-02-06T00:18:58.272Z,7.63
2023-02-06T00:21:27.238Z,7.78
2023-02-06T00:23:56.786Z,6.13
2023-02-06T00:26:24.851Z,7.75
2023-02-06T00:28:52.672Z,8.80
2023-02-06T00:31:19.967Z,7.40
2023-02-06T00:33:47.438Z,8.07
2023-02-06T00:36:14.902Z,5.72
2023-02-06T00:38:42.190Z,6.50
2023-02-06T00:41:09.441Z,6.15
2023-02-06T00:43:37.258Z,6.80
2023-02-06T00:46:04.732Z,7.00
2023-02-06T00:48:32.174Z,6.78
2023-02-06T00:50:59.506Z,6.78
2023-02-06T00:53:26.844Z,6.50
2023-02-06T00:55:54.118Z,6.13
2023-02-06T00:58:22.674Z,6.40
2023-02-06T01:00:49.969Z,5.30
2023-02-06T01:03:17.625Z,5.20
2023-02-06T01:05:44.913Z,6.43
2023-02-06T01:08:12.324Z,6.18
2023-02-06T01:10:43.797Z,5.03
2023-02-06T01:13:11.297Z,5.50
2023-02-06T01:15:41.544Z,5.55
2023-02-06T01:18:08.921Z,5.50
2023-02-06T01:20:36.251Z,9.02
2023-02-06T01:23:04.529Z,6.50
2023-02-06T01:25:32.245Z,5.68
2023-02-06T01:27:59.485Z,5.53
2023-02-06T01:30:26.931Z,7.22
2023-02-06T01:32:54.241Z,6.65
2023-02-06T01:35:21.658Z,6.22
2023-02-06T01:37:48.900Z,6.68
2023-02-06T01:40:17.197Z,6.47
2023-02-06T01:42:44.581Z,6.07
2023-02-06T01:45:35.311Z,5.68
2023-02-06T01:48:08.586Z,6.03
2023-02-06T01:50:38.510Z,5.05
2023-02-06T01:53:07.289Z,4.85
2023-02-06T01:55:37.817Z,5.63
2023-02-06T01:58:05.774Z,6.28
2023-02-06T02:00:33.192Z,6.18
2023-02-06T02:03:01.640Z,6.60
2023-02-06T02:05:33.022Z,6.15
2023-02-06T02:08:12.578Z,6.43
2023-02-06T02:10:40.468Z,5.78
2023-02-06T02:13:07.771Z,6.32
2023-02-06T02:15:48.905Z,6.20
2023-02-06T02:18:38.127Z,6.05
2023-02-06T02:21:24.217Z,6.63
2023-02-06T02:23:57.383Z,6.75
2023-02-06T02:26:29.853Z,5.68
2023-02-06T02:28:57.063Z,6.10
2023-02-06T02:31:27.179Z,10.15
2023-02-06T02:34:06.289Z,6.95
2023-02-06T02:37:05.278Z,8.23
2023-02-06T02:39:55.611Z,7.10
2023-02-06T02:42:34.883Z,5.68
2023-02-06T02:45:45.631Z,6.55
2023-02-06T02:48:22.369Z,6.07
2023-02-06T02:50:50.165Z,6.93
2023-02-06T02:53:17.516Z,6.30
2023-02-06T02:55:45.764Z,9.20
2023-02-06T02:58:19.276Z,7.32
2023-02-06T03:00:52.919Z,6.07
2023-02-06T03:03:28.683Z,7.22
2023-02-06T03:06:19.355Z,8.65
2023-02-06T03:08:59.000Z,7.20
2023-02-06T03:11:27.063Z,6.85
2023-02-06T03:14:06.155Z,6.32
2023-02-06T03:16:38.705Z,7.18
2023-02-06T03:19:18.542Z,6.75
2023-02-06T03:21:47.422Z,6.75
2023-02-06T03:24:19.641Z,8.38
2023-02-06T03:26:50.773Z,6.65
2023-02-06T03:29:19.585Z,6.53
2023-02-06T03:31:53.221Z,6.35
2023-02-06T03:34:28.951Z,8.07
2023-02-06T03:36:56.482Z,8.70
2023-02-06T03:39:23.995Z,7.00
2023-02-06T03:41:51.848Z,9.02
2023-02-06T03:44:24.055Z,8.95
2023-02-06T03:46:53.450Z,13.70
2023-02-06T03:49:24.355Z,12.10
2023-02-06T03:52:06.911Z,8.70
2023-02-06T03:54:39.240Z,9.52
2023-02-06T03:57:12.108Z,9.48
2023-02-06T03:59:39.426Z,7.97
2023-02-06T04:02:07.165Z,9.25
2023-02-06T04:04:39.764Z,7.75
2023-02-06T04:07:12.750Z,9.05
2023-02-06T04:09:40.790Z,8.23
2023-02-06T04:12:08.999Z,7.18
2023-02-06T04:14:36.821Z,6.30
2023-02-06T04:17:05.090Z,7.18
2023-02-06T04:19:33.315Z,7.07
2023-02-06T04:22:01.205Z,7.35
2023-02-06T04:24:30.852Z,7.20
2023-02-06T04:26:58.565Z,7.55
2023-02-06T04:29:26.152Z,7.45
2023-02-06T04:31:53.535Z,6.60
2023-02-06T04:34:20.752Z,7.93
2023-02-06T04:36:48.172Z,7.00
2023-02-06T04:39:15.504Z,7.60
2023-02-06T04:41:42.739Z,7.43
2023-02-06T04:44:10.003Z,7.40
2023-02-06T04:46:37.269Z,9.10
2023-02-06T04:49:04.761Z,6.97
2023-02-06T04:51:32.154Z,8.35
2023-02-06T04:53:59.430Z,7.47
2023-02-06T04:56:26.680Z,8.27
2023-02-06T04:58:53.977Z,8.48
2023-02-06T05:01:21.872Z,7.18
2023-02-06T05:03:49.418Z,7.20
2023-02-06T05:06:16.908Z,7.60
2023-02-06T05:08:44.266Z,8.43
2023-02-06T05:11:11.633Z,7.00
2023-02-06T05:13:38.909Z,8.32
2023-02-06T05:16:11.424Z,7.55
2023-02-06T05:18:39.238Z,8.60
2023-02-06T05:21:07.033Z,7.75
2023-02-06T05:23:34.526Z,7.55
2023-02-06T05:26:01.966Z,8.15
2023-02-06T05:28:29.909Z,8.30
2023-02-06T05:30:57.382Z,6.97
2023-02-06T05:33:24.698Z,7.38
2023-02-06T05:35:51.938Z,7.28
2023-02-06T05:38:19.554Z,8.35
2023-02-06T05:40:50.195Z,6.72
2023-02-06T05:43:17.548Z,7.03
2023-02-06T05:45:44.746Z,7.03
2023-02-06T05:48:12.114Z,8.95
2023-02-06T05:50:39.347Z,8.60
2023-02-06T05:53:16.526Z,9.57
2023-02-06T05:55:43.831Z,9.43
2023-02-06T05:58:11.585Z,9.38
2023-02-06T06:00:38.966Z,8.75
2023-02-06T06:03:06.230Z,8.80
2023-02-06T06:05:33.722Z,9.23
2023-02-06T06:08:01.249Z,9.85
2023-02-06T06:10:28.980Z,9.43
2023-02-06T06:12:57.051Z,8.93
2023-02-06T06:15:24.293Z,9.48
2023-02-06T06:17:51.567Z,10.07
2023-02-06T06:20:19.243Z,10.73
2023-02-06T06:22:46.568Z,10.07
2023-02-06T06:25:13.780Z,10.90
2023-02-06T06:27:41.166Z,8.82
2023-02-06T06:30:09.310Z,9.82
2023-02-06T06:32:37.127Z,10.70
2023-02-06T06:35:04.691Z,9.27
2023-02-06T06:37:31.982Z,18.42
2023-02-06T06:39:59.198Z,20.73
2023-02-06T06:42:26.518Z,23.23
2023-02-06T06:44:53.732Z,12.05
2023-02-06T06:47:21.061Z,9.23
2023-02-06T06:49:48.400Z,13.57
2023-02-06T06:52:24.514Z,12.10
2023-02-06T06:54:53.314Z,10.50
2023-02-06T06:57:22.029Z,11.55
2023-02-06T06:59:50.088Z,13.65
2023-02-06T07:02:17.558Z,8.43
2023-02-06T07:04:44.915Z,10.18
2023-02-06T07:07:12.321Z,10.40
2023-02-06T07:09:39.662Z,12.07
2023-02-06T07:12:07.163Z,10.15
2023-02-06T07:14:34.411Z,13.27
2023-02-06T07:17:01.801Z,16.63
2023-02-06T07:19:29.106Z,9.38
2023-02-06T07:21:56.418Z,12.63
2023-02-06T07:24:23.780Z,16.23
2023-02-06T07:26:51.018Z,10.88
2023-02-06T07:29:18.499Z,10.77
2023-02-06T07:31:45.900Z,10.27
2023-02-06T07:34:13.162Z,12.95
2023-02-06T07:36:40.538Z,9.75
2023-02-06T07:39:07.778Z,14.20
2023-02-06T07:41:35.072Z,8.40
2023-02-06T07:44:02.391Z,9.55
2023-02-06T07:46:29.659Z,8.80
2023-02-06T07:48:57.596Z,14.18
2023-02-06T07:51:24.871Z,9.82
2023-02-06T07:53:52.151Z,8.93
2023-02-06T07:56:23.101Z,11.35
2023-02-06T07:58:51.846Z,9.48
2023-02-06T08:01:20.218Z,11.50
2023-02-06T08:03:50.683Z,10.38
2023-02-06T08:06:19.103Z,9.75
2023-02-06T08:08:46.379Z,9.40
2023-02-06T08:11:16.252Z,8.35
2023-02-06T08:13:43.837Z,10.30
2023-02-06T08:16:14.566Z,8.27
2023-02-06T08:18:42.269Z,11.02
2023-02-06T08:21:18.622Z,8.68
2023-02-06T08:23:46.234Z,9.95
2023-02-06T08:26:16.031Z,8.98
2023-02-06T08:28:45.827Z,12.75
2023-02-06T08:31:18.966Z,8.18
2023-02-06T08:33:46.488Z,8.95
2023-02-06T08:36:15.979Z,11.10
2023-02-06T08:38:43.305Z,9.10
2023-02-06T08:41:22.357Z,8.40
2023-02-06T08:43:51.178Z,11.32
2023-02-06T08:46:20.279Z,8.35
2023-02-06T08:48:47.635Z,10.40
2023-02-06T08:51:15.356Z,8.27
2023-02-06T08:53:42.776Z,10.25
2023-02-06T08:56:12.148Z,11.60
2023-02-06T08:58:40.085Z,9.00
2023-02-06T09:01:09.772Z,8.43
2023-02-06T09:03:37.115Z,10.15
2023-02-06T09:06:10.294Z,9.70
2023-02-06T09:08:39.210Z,8.88
2023-02-06T09:11:08.572Z,7.88
2023-02-06T09:13:36.007Z,7.65
2023-02-06T09:16:04.254Z,8.18
2023-02-06T09:18:31.595Z,8.35
2023-02-06T09:21:13.280Z,9.50
2023-02-06T09:23:45.839Z,7.72
2023-02-06T09:26:23.144Z,9.55
2023-02-06T09:28:55.349Z,8.35
2023-02-06T09:31:22.688Z,8.25
2023-02-06T09:33:50.003Z,8.95
2023-02-06T09:36:19.570Z,8.70
2023-02-06T09:38:50.857Z,9.23
2023-02-06T09:41:31.615Z,8.70
2023-02-06T09:44:07.552Z,9.05
2023-02-06T09:46:36.969Z,9.60
2023-02-06T09:49:13.640Z,10.40
2023-02-06T09:52:01.132Z,8.93
2023-02-06T09:54:50.306Z,8.45
2023-02-06T09:57:25.802Z,9.27
2023-02-06T10:00:01.108Z,9.35
2023-02-06T10:02:41.202Z,10.23
2023-02-06T10:05:14.309Z,11.73
2023-02-06T10:08:06.335Z,11.68
2023-02-06T10:10:46.336Z,10.23
2023-02-06T10:13:22.388Z,12.82
2023-02-06T10:15:54.437Z,12.20
2023-02-06T10:18:29.649Z,15.65
2023-02-06T10:21:12.485Z,14.30
2023-02-06T10:23:49.880Z,12.77
2023-02-06T10:26:19.174Z,10.93
2023-02-06T10:28:55.967Z,9.60
2023-02-06T10:31:50.511Z,9.43
2023-02-06T10:34:27.519Z,10.27
2023-02-06T10:37:06.770Z,10.00
2023-02-06T10:40:04.486Z,9.77
2023-02-06T10:42:40.733Z,9.27
2023-02-06T10:45:25.278Z,8.80
2023-02-06T10:48:11.991Z,9.93
2023-02-06T10:50:48.507Z,11.85
2023-02-06T10:53:28.793Z,12.68
2023-02-06T10:56:16.478Z,16.50
2023-02-06T10:58:50.073Z,19.55
2023-02-06T11:01:25.957Z,20.13
2023-02-06T11:04:04.736Z,19.52
2023-02-06T11:06:32.755Z,21.10
2023-02-06T11:09:00.287Z,20.92
2023-02-06T11:11:36.129Z,18.80
2023-02-06T11:14:28.669Z,19.05
2023-02-06T11:16:59.546Z,19.17
2023-02-06T11:19:31.702Z,19.90
2023-02-06T11:22:05.748Z,19.48
2023-02-06T11:24:34.291Z,21.23
2023-02-06T11:27:11.504Z,21.40
2023-02-06T11:29:45.592Z,18.15
2023-02-06T11:32:27.732Z,20.67
2023-02-06T11:34:58.998Z,21.10
2023-02-06T11:37:35.573Z,23.02
2023-02-06T11:40:25.114Z,22.95
2023-02-06T11:43:12.566Z,26.40
2023-02-06T11:45:41.215Z,20.92
2023-02-06T11:48:31.074Z,21.95
2023-02-06T11:50:58.591Z,21.67
2023-02-06T11:53:26.147Z,21.17
2023-02-06T11:56:22.895Z,22.52
2023-02-06T11:59:07.140Z,20.60
2023-02-06T12:01:43.862Z,20.95
2023-02-06T12:04:31.904Z,19.98
2023-02-06T12:07:05.786Z,19.70
2023-02-06T12:09:33.059Z,20.85
2023-02-06T12:12:24.335Z,21.05
2023-02-06T12:15:00.118Z,18.13
2023-02-06T12:17:37.312Z,20.02
2023-02-06T12:20:20.519Z,20.40
2023-02-06T12:22:57.369Z,21.08
2023-02-06T12:25:38.838Z,19.33
2023-02-06T12:28:13.973Z,20.60
2023-02-06T12:31:04.910Z,21.15
2023-02-06T12:34:04.572Z,20.65
2023-02-06T12:36:38.351Z,21.20
2023-02-06T12:39:19.603Z,22.23
2023-02-06T12:41:52.998Z,23.92
2023-02-06T12:44:32.341Z,23.45
2023-02-06T12:47:13.664Z,21.20
2023-02-06T12:50:02.904Z,20.67
2023-02-06T12:52:39.090Z,20.35
2023-02-06T12:55:18.584Z,19.73
2023-02-06T12:57:46.014Z,19.75
2023-02-06T13:00:41.251Z,17.40
2023-02-06T13:03:20.967Z,18.23
2023-02-06T13:05:52.551Z,17.73
2023-02-06T13:08:31.000Z,15.48
2023-02-06T13:11:08.153Z,15.15
2023-02-06T13:13:40.268Z,14.13
2023-02-06T13:16:09.056Z,12.88
2023-02-06T13:18:44.470Z,11.55
2023-02-06T13:21:29.702Z,12.25
2023-02-06T13:24:03.161Z,12.48
2023-02-06T13:27:03.874Z,12.40
2023-02-06T13:29:33.536Z,12.00
2023-02-06T13:32:18.377Z,13.32
2023-02-06T13:35:07.540Z,13.50
2023-02-06T13:37:39.469Z,12.88
2023-02-06T13:40:25.781Z,12.18
2023-02-06T13:43:02.734Z,11.38
2023-02-06T13:45:49.308Z,11.32
2023-02-06T13:48:47.011Z,10.88
2023-02-06T13:51:29.361Z,10.07
2023-02-06T13:54:34.273Z,11.48
2023-02-06T13:57:19.080Z,10.63
2023-02-06T13:59:51.781Z,10.43
2023-02-06T14:02:56.297Z,9.50
2023-02-06T14:05:36.842Z,9.50
2023-02-06T14:08:24.609Z,10.02
2023-02-06T14:11:20.109Z,9.75
2023-02-06T14:14:16.556Z,9.27
2023-02-06T14:17:09.833Z,8.38
2023-02-06T14:19:42.876Z,8.32
2023-02-06T14:22:36.859Z,9.15
2023-02-06T14:25:13.227Z,9.32
2023-02-06T14:28:12.114Z,8.65
2023-02-06T14:31:04.990Z,7.70
2023-02-06T14:33:54.517Z,8.77
2023-02-06T14:36:51.237Z,8.00
2023-02-06T14:39:36.350Z,8.05
2023-02-06T14:42:13.181Z,7.97
2023-02-06T14:44:42.834Z,8.20
2023-02-06T14:47:20.553Z,7.90
2023-02-06T14:49:48.935Z,8.65
2023-02-06T14:52:21.617Z,8.23
2023-02-06T14:54:49.116Z,8.70
2023-02-06T14:57:26.730Z,7.70
2023-02-06T15:00:05.884Z,7.45
2023-02-06T15:02:35.996Z,7.50
2023-02-06T15:05:05.075Z,8.57
2023-02-06T15:07:37.821Z,7.40
2023-02-06T15:10:13.213Z,7.05
2023-02-06T15:12:41.294Z,7.25
2023-02-06T15:15:20.435Z,7.93
2023-02-06T15:18:16.257Z,7.70
2023-02-06T15:20:45.851Z,7.82
2023-02-06T15:23:44.772Z,8.10
2023-02-06T15:26:43.354Z,8.43
2023-02-06T15:29:23.014Z,8.90
2023-02-06T15:31:53.037Z,7.88
2023-02-06T15:34:24.290Z,8.07
2023-02-06T15:36:52.391Z,7.82
2023-02-06T15:39:20.247Z,7.65
2023-02-06T15:41:50.486Z,8.27
2023-02-06T15:44:38.165Z,7.15
2023-02-06T15:47:11.131Z,8.27
2023-02-06T15:49:42.392Z,8.73
2023-02-06T15:52:15.249Z,9.50
2023-02-06T15:54:45.008Z,8.70
2023-02-06T15:57:27.758Z,8.63
2023-02-06T15:59:56.922Z,8.02
2023-02-06T16:02:34.348Z,9.32
2023-02-06T16:05:02.657Z,8.60
2023-02-06T16:07:35.908Z,8.90
2023-02-06T16:10:20.605Z,8.10
2023-02-06T16:12:48.522Z,7.70
2023-02-06T16:15:38.622Z,11.20
2023-02-06T16:18:39.490Z,11.32
2023-02-06T16:21:15.847Z,9.93
2023-02-06T16:23:50.740Z,8.77
2023-02-06T16:26:19.456Z,9.05
2023-02-06T16:29:29.942Z,8.98
2023-02-06T16:32:02.577Z,9.20
2023-02-06T16:34:36.721Z,10.45
2023-02-06T16:37:10.780Z,9.07
2023-02-06T16:39:42.218Z,8.85
2023-02-06T16:42:34.216Z,10.50
2023-02-06T16:45:06.475Z,8.27
2023-02-06T16:47:33.834Z,8.98
2023-02-06T16:50:01.264Z,9.15
2023-02-06T16:52:31.636Z,9.73
2023-02-06T16:55:00.084Z,10.40
2023-02-06T16:57:39.101Z,10.75
2023-02-06T17:00:33.125Z,10.75
2023-02-06T17:03:00.837Z,9.73
2023-02-06T17:05:28.985Z,11.02
2023-02-06T17:07:56.425Z,10.80
2023-02-06T17:10:26.168Z,9.98
2023-02-06T17:12:54.098Z,11.82
2023-02-06T17:15:21.511Z,11.95
2023-02-06T17:17:48.836Z,10.95
2023-02-06T17:20:35.005Z,11.27
2023-02-06T17:23:02.619Z,11.55
2023-02-06T17:25:30.284Z,10.82
2023-02-06T17:27:58.145Z,11.75
2023-02-06T17:30:26.149Z,11.82
2023-02-06T17:32:54.127Z,11.80
2023-02-06T17:35:21.575Z,12.05
2023-02-06T17:37:49.234Z,11.68
2023-02-06T17:40:20.162Z,12.65
2023-02-06T17:42:48.825Z,12.57
2023-02-06T17:45:16.441Z,12.57
2023-02-06T17:47:44.441Z,12.32
2023-02-06T17:50:20.272Z,12.60
2023-02-06T17:52:48.358Z,11.75
2023-02-06T17:55:17.039Z,12.57
2023-02-06T17:57:44.458Z,12.93
2023-02-06T18:00:15.307Z,14.23
2023-02-06T18:02:42.959Z,14.15
2023-02-06T18:05:11.006Z,15.07
2023-02-06T18:07:39.082Z,17.90
2023-02-06T18:10:08.212Z,19.45
2023-02-06T18:12:36.079Z,16.77
2023-02-06T18:15:05.270Z,18.25
2023-02-06T18:17:32.765Z,17.42
2023-02-06T18:20:00.363Z,15.25
2023-02-06T18:22:27.853Z,13.55
2023-02-06T18:24:55.119Z,14.55
2023-02-06T18:27:23.198Z,14.48
2023-02-06T18:29:54.869Z,16.23
2023-02-06T18:32:22.287Z,14.57
2023-02-06T18:34:49.733Z,14.57
2023-02-06T18:37:17.170Z,14.90
2023-02-06T18:39:44.575Z,14.77
2023-02-06T18:42:31.374Z,15.43
2023-02-06T18:44:58.637Z,14.40
2023-02-06T18:47:25.906Z,17.08
2023-02-06T18:49:53.245Z,18.40
2023-02-06T18:52:20.752Z,17.08
2023-02-06T18:54:48.736Z,18.60
2023-02-06T18:57:16.020Z,21.52
2023-02-06T18:59:43.332Z,17.10
2023-02-06T19:02:11.765Z,16.63
2023-02-06T19:04:40.540Z,18.15
2023-02-06T19:07:08.916Z,16.70
2023-02-06T19:09:36.177Z,16.83
2023-02-06T19:12:03.978Z,15.70
2023-02-06T19:14:31.242Z,17.15
2023-02-06T19:16:58.603Z,17.60
2023-02-06T19:19:26.045Z,20.75
2023-02-06T19:21:53.555Z,20.60
2023-02-06T19:24:20.810Z,17.88
2023-02-06T19:26:48.223Z,21.90
2023-02-06T19:29:34.402Z,25.08
2023-02-06T19:32:07.609Z,22.55
2023-02-06T19:34:37.116Z,21.35
2023-02-06T19:37:06.240Z,17.65
2023-02-06T19:39:34.436Z,16.77
2023-02-06T19:42:04.562Z,15.90
2023-02-06T19:44:33.465Z,15.60
2023-02-06T19:47:00.757Z,16.67
2023-02-06T19:49:28.095Z,18.65
2023-02-06T19:51:55.466Z,17.15
2023-02-06T19:54:22.771Z,16.75
2023-02-06T19:56:50.152Z,15.98
2023-02-06T19:59:26.259Z,16.20
2023-02-06T20:01:58.765Z,17.75
2023-02-06T20:04:29.085Z,18.08
2023-02-06T20:06:57.285Z,24.58
2023-02-06T20:09:25.750Z,22.80
2023-02-06T20:11:53.116Z,23.73
2023-02-06T20:14:20.907Z,17.58
2023-02-06T20:16:49.252Z,14.90
2023-02-06T20:19:24.342Z,15.48
2023-02-06T20:21:54.791Z,14.35
2023-02-06T20:24:25.647Z,15.85
2023-02-06T20:26:56.311Z,16.70
2023-02-06T20:29:29.341Z,18.88
2023-02-06T20:31:57.458Z,19.25
2023-02-06T20:34:25.778Z,18.55
2023-02-06T20:36:54.611Z,16.23
2023-02-06T20:39:22.276Z,15.15
2023-02-06T20:41:50.358Z,15.45
2023-02-06T20:44:19.879Z,15.38
2023-02-06T20:46:47.542Z,16.02
2023-02-06T20:49:27.565Z,17.40
2023-02-06T20:51:55.194Z,14.52
2023-02-06T20:54:23.764Z,16.10
2023-02-06T20:56:51.683Z,15.15
2023-02-06T20:59:20.168Z,14.95
2023-02-06T21:01:50.777Z,17.02
2023-02-06T21:04:28.013Z,15.93
2023-02-06T21:06:56.589Z,18.95
2023-02-06T21:09:26.799Z,17.67
2023-02-06T21:11:54.491Z,17.83
2023-02-06T21:14:22.244Z,17.77
2023-02-06T21:16:52.908Z,17.55
2023-02-06T21:19:21.542Z,17.85
2023-02-06T21:21:52.007Z,17.98
2023-02-06T21:24:19.436Z,19.10
2023-02-06T21:26:47.385Z,17.95
2023-02-06T21:29:16.343Z,17.75
2023-02-06T21:31:46.609Z,18.65
2023-02-06T21:34:18.074Z,20.92
2023-02-06T21:36:47.613Z,18.98
2023-02-06T21:39:22.929Z,17.98
2023-02-06T21:41:59.640Z,19.95
2023-02-06T21:44:29.267Z,19.27
2023-02-06T21:46:57.629Z,18.23
2023-02-06T21:49:25.366Z,18.52
2023-02-06T21:51:54.702Z,18.88
2023-02-06T21:54:23.208Z,19.25
2023-02-06T21:56:51.789Z,19.40
2023-02-06T21:59:21.506Z,18.70
2023-02-06T22:01:50.212Z,17.58
2023-02-06T22:04:18.782Z,18.48
2023-02-06T22:06:48.158Z,18.45
2023-02-06T22:09:16.899Z,18.05
2023-02-06T22:11:46.608Z,18.42
2023-02-06T22:14:18.283Z,17.95
2023-02-06T22:16:46.912Z,17.50
2023-02-06T22:19:15.838Z,19.80
2023-02-06T22:21:44.908Z,20.67
2023-02-06T22:24:15.241Z,22.25
2023-02-06T22:26:44.393Z,20.27
2023-02-06T22:29:15.651Z,23.55
2023-02-06T22:31:45.169Z,25.48
2023-02-06T22:34:21.086Z,25.33
2023-02-06T22:36:51.431Z,22.55
2023-02-06T22:39:19.684Z,22.23
2023-02-06T22:41:55.331Z,20.70
2023-02-06T22:44:23.015Z,20.95
2023-02-06T22:46:53.303Z,21.98
2023-02-06T22:49:24.208Z,22.90
2023-02-06T22:51:52.202Z,21.08
2023-02-06T22:54:21.245Z,22.48
2023-02-06T22:56:48.963Z,22.45
2023-02-06T22:59:25.324Z,23.83
2023-02-06T23:01:58.144Z,21.55
2023-02-06T23:04:29.882Z,22.92
2023-02-06T23:06:57.750Z,22.45
2023-02-06T23:09:28.557Z,25.33
2023-02-06T23:11:58.398Z,25.15
2023-02-06T23:14:27.481Z,28.00
2023-02-06T23:16:54.991Z,25.70
2023-02-06T23:19:22.692Z,27.25
2023-02-06T23:21:53.999Z,24.63
2023-02-06T23:24:21.310Z,24.88
2023-02-06T23:26:50.887Z,23.38
2023-02-06T23:29:19.377Z,24.35
2023-02-06T23:31:47.621Z,23.00
2023-02-06T23:34:16.191Z,24.35
2023-02-06T23:36:43.818Z,24.52
2023-02-06T23:39:11.930Z,26.48
2023-02-06T23:41:39.659Z,25.05
2023-02-06T23:44:08.181Z,23.08
2023-02-06T23:46:38.129Z,22.45
2023-02-06T23:49:06.387Z,22.15
2023-02-06T23:51:35.040Z,25.15
2023-02-06T23:54:02.615Z,24.73
2023-02-06T23:56:31.262Z,25.45
2023-02-06T23:59:00.809Z,24.48
